createdAt,value
2018-04-15T00:00:21.583Z,4.10
2018-04-15T00:02:49.143Z,4.27
2018-04-15T00:05:16.662Z,3.37
2018-04-15T00:07:44.182Z,4.33
2018-04-15T00:10:11.722Z,3.27
2018-04-15T00:12:39.258Z,2.23
2018-04-15T00:15:07.555Z,1.93
2018-04-15T00:17:35.099Z,4.50
2018-04-15T00:20:03.410Z,4.47
2018-04-15T00:22:30.927Z,3.60
2018-04-15T00:24:59.219Z,2.90
2018-04-15T00:27:26.778Z,2.57
2018-04-15T00:29:54.314Z,3.13
2018-04-15T00:32:21.830Z,2.87
2018-04-15T00:34:49.367Z,1.93
2018-04-15T00:37:16.882Z,2.10
2018-04-15T00:39:44.413Z,2.13
2018-04-15T00:42:12.014Z,3.50
2018-04-15T00:44:40.309Z,3.03
2018-04-15T00:47:07.855Z,2.77
2018-04-15T00:49:35.370Z,3.03
2018-04-15T00:52:02.893Z,3.17
2018-04-15T00:54:30.402Z,3.23
2018-04-15T00:56:57.914Z,2.77
2018-04-15T00:59:25.491Z,3.50
2018-04-15T01:01:53.020Z,2.57
2018-04-15T01:04:20.559Z,2.93
2018-04-15T01:06:48.095Z,2.70
2018-04-15T01:09:15.634Z,2.50
2018-04-15T01:11:43.173Z,4.90
2018-04-15T01:14:10.703Z,2.97
2018-04-15T01:16:38.242Z,4.27
2018-04-15T01:19:05.790Z,2.17
2018-04-15T01:21:33.343Z,1.93
2018-04-15T01:24:00.918Z,3.10
2018-04-15T01:26:28.470Z,2.40
2018-04-15T01:28:55.991Z,3.17
2018-04-15T01:31:23.511Z,1.83
2018-04-15T01:33:56.011Z,2.80
2018-04-15T01:36:23.526Z,3.23
2018-04-15T01:38:51.823Z,2.60
2018-04-15T01:41:19.349Z,3.10
2018-04-15T01:43:46.877Z,3.17
2018-04-15T01:46:14.386Z,1.60
2018-04-15T01:48:42.687Z,2.10
2018-04-15T01:51:10.229Z,3.03
2018-04-15T01:53:37.738Z,2.23
2018-04-15T01:56:05.255Z,2.57
2018-04-15T01:58:32.838Z,2.43
2018-04-15T02:01:00.366Z,2.27
2018-04-15T02:03:38.363Z,2.73
2018-04-15T02:06:06.665Z,2.10
2018-04-15T02:08:34.186Z,1.70
2018-04-15T02:11:02.492Z,3.43
2018-04-15T02:13:30.001Z,3.40
2018-04-15T02:15:57.522Z,1.83
2018-04-15T02:18:25.083Z,2.57
2018-04-15T02:20:52.593Z,2.03
2018-04-15T02:23:20.118Z,2.80
2018-04-15T02:25:47.657Z,2.10
2018-04-15T02:28:15.262Z,2.00
2018-04-15T02:30:42.778Z,4.00
2018-04-15T02:33:10.315Z,3.67
2018-04-15T02:35:37.827Z,5.33
2018-04-15T02:38:05.343Z,2.63
2018-04-15T02:40:32.907Z,2.57
2018-04-15T02:43:00.427Z,2.63
2018-04-15T02:45:27.960Z,3.20
2018-04-15T02:47:55.499Z,2.47
2018-04-15T02:50:23.013Z,2.20
2018-04-15T02:52:51.318Z,2.10
2018-04-15T02:55:18.890Z,2.70
2018-04-15T02:57:46.423Z,2.07
2018-04-15T03:00:13.938Z,1.90
2018-04-15T03:02:41.500Z,3.20
2018-04-15T03:05:09.073Z,3.47
2018-04-15T03:07:36.590Z,2.57
2018-04-15T03:10:04.112Z,1.70
2018-04-15T03:12:31.649Z,2.37
2018-04-15T03:15:05.031Z,1.63
2018-04-15T03:17:32.603Z,3.20
2018-04-15T03:20:00.891Z,1.70
2018-04-15T03:22:28.454Z,2.33
2018-04-15T03:24:56.074Z,2.13
2018-04-15T03:27:23.593Z,2.53
2018-04-15T03:29:51.149Z,2.13
2018-04-15T03:32:19.422Z,1.90
2018-04-15T03:35:01.229Z,2.87
2018-04-15T03:37:28.749Z,3.13
2018-04-15T03:39:56.315Z,3.43
2018-04-15T03:42:23.858Z,2.17
2018-04-15T03:44:51.791Z,1.87
2018-04-15T03:47:19.313Z,2.00
2018-04-15T03:49:46.867Z,2.33
2018-04-15T03:52:14.397Z,4.30
2018-04-15T03:54:41.951Z,2.10
2018-04-15T03:57:10.250Z,2.93
2018-04-15T03:59:37.778Z,2.67
2018-04-15T04:02:05.290Z,2.13
2018-04-15T04:04:33.213Z,5.63
2018-04-15T04:07:01.542Z,1.63
2018-04-15T04:09:29.054Z,2.70
2018-04-15T04:11:56.593Z,7.37
2018-04-15T04:14:24.312Z,2.77
2018-04-15T04:16:51.816Z,2.63
2018-04-15T04:19:31.075Z,2.03
2018-04-15T04:22:10.314Z,1.83
2018-04-15T04:24:49.912Z,1.50
2018-04-15T04:27:17.423Z,2.20
2018-04-15T04:29:44.922Z,3.27
2018-04-15T04:32:12.482Z,2.17
2018-04-15T04:34:40.175Z,3.30
2018-04-15T04:37:08.502Z,2.13
2018-04-15T04:39:36.037Z,3.83
2018-04-15T04:42:03.549Z,1.97
2018-04-15T04:44:50.056Z,3.80
2018-04-15T04:47:17.575Z,4.07
2018-04-15T04:49:45.089Z,2.87
2018-04-15T04:52:12.643Z,1.87
2018-04-15T04:54:40.158Z,2.67
2018-04-15T04:57:07.679Z,3.87
2018-04-15T04:59:35.198Z,3.53
2018-04-15T05:02:02.726Z,3.50
2018-04-15T05:04:30.234Z,2.97
2018-04-15T05:06:57.803Z,3.37
2018-04-15T05:09:25.354Z,3.07
2018-04-15T05:11:53.652Z,2.23
2018-04-15T05:14:21.406Z,1.93
2018-04-15T05:16:49.691Z,1.83
2018-04-15T05:19:17.187Z,2.00
2018-04-15T05:21:44.734Z,5.77
2018-04-15T05:24:12.343Z,1.83
2018-04-15T05:26:40.617Z,1.67
2018-04-15T05:29:08.127Z,2.90
2018-04-15T05:31:35.650Z,2.53
2018-04-15T05:34:03.398Z,2.10
2018-04-15T05:36:31.698Z,2.70
2018-04-15T05:38:59.276Z,2.83
2018-04-15T05:41:26.798Z,2.97
2018-04-15T05:43:55.084Z,3.37
2018-04-15T05:46:22.625Z,3.03
2018-04-15T05:48:50.146Z,1.87
2018-04-15T05:51:17.699Z,3.67
2018-04-15T05:53:45.208Z,1.60
2018-04-15T05:56:12.714Z,2.83
2018-04-15T05:58:40.238Z,1.87
2018-04-15T06:01:07.762Z,2.80
2018-04-15T06:03:35.269Z,2.60
2018-04-15T06:06:02.845Z,1.80
2018-04-15T06:08:30.391Z,2.07
2018-04-15T06:10:57.894Z,2.53
2018-04-15T06:13:25.467Z,1.87
2018-04-15T06:15:53.068Z,2.53
2018-04-15T06:18:20.594Z,4.00
2018-04-15T06:20:48.127Z,4.17
2018-04-15T06:23:15.707Z,2.40
2018-04-15T06:25:43.994Z,2.00
2018-04-15T06:28:12.271Z,2.73
2018-04-15T06:30:39.819Z,5.33
2018-04-15T06:33:08.108Z,5.23
2018-04-15T06:35:35.630Z,2.70
2018-04-15T06:38:03.166Z,2.20
2018-04-15T06:40:30.699Z,2.93
2018-04-15T06:42:58.227Z,3.03
2018-04-15T06:45:26.552Z,4.27
2018-04-15T06:47:54.099Z,2.40
2018-04-15T06:50:21.659Z,4.27
2018-04-15T06:52:49.179Z,4.40
2018-04-15T06:55:16.709Z,6.07
2018-04-15T06:57:44.251Z,3.07
2018-04-15T07:00:11.800Z,4.60
2018-04-15T07:02:39.315Z,2.47
2018-04-15T07:05:07.599Z,3.67
2018-04-15T07:07:35.186Z,3.00
2018-04-15T07:10:02.703Z,3.03
2018-04-15T07:12:30.238Z,7.13
2018-04-15T07:14:57.823Z,2.60
2018-04-15T07:17:26.118Z,6.20
2018-04-15T07:19:53.667Z,3.20
2018-04-15T07:22:21.223Z,2.90
2018-04-15T07:24:48.741Z,3.47
2018-04-15T07:27:16.323Z,3.53
2018-04-15T07:29:43.851Z,3.37
2018-04-15T07:32:11.386Z,3.80
2018-04-15T07:34:38.919Z,2.73
2018-04-15T07:37:06.435Z,2.40
2018-04-15T07:39:33.970Z,2.90
2018-04-15T07:42:01.509Z,2.63
2018-04-15T07:44:29.031Z,3.07
2018-04-15T07:46:56.592Z,3.00
2018-04-15T07:49:24.931Z,4.47
2018-04-15T07:51:52.450Z,4.43
2018-04-15T07:54:19.990Z,3.80
2018-04-15T07:56:48.277Z,3.17
2018-04-15T07:59:16.567Z,3.60
2018-04-15T08:01:44.098Z,3.40
2018-04-15T08:04:26.821Z,6.57
2018-04-15T08:06:54.346Z,3.40
2018-04-15T08:09:21.878Z,6.40
2018-04-15T08:11:49.392Z,5.37
2018-04-15T08:14:16.931Z,4.37
2018-04-15T08:16:44.499Z,2.37
2018-04-15T08:19:12.015Z,2.83
2018-04-15T08:21:39.595Z,7.13
2018-04-15T08:24:07.184Z,2.60
2018-04-15T08:26:34.749Z,3.17
2018-04-15T08:29:02.439Z,3.43
2018-04-15T08:31:34.128Z,6.27
2018-04-15T08:34:03.910Z,3.27
2018-04-15T08:36:36.033Z,4.13
2018-04-15T08:39:03.766Z,2.63
2018-04-15T08:41:31.283Z,3.97
2018-04-15T08:43:58.818Z,4.07
2018-04-15T08:46:26.455Z,3.40
2018-04-15T08:48:53.995Z,3.67
2018-04-15T08:51:21.508Z,2.93
2018-04-15T08:53:49.166Z,2.80
2018-04-15T08:56:16.718Z,3.13
2018-04-15T08:58:44.267Z,3.77
2018-04-15T09:01:12.599Z,2.80
2018-04-15T09:03:40.202Z,2.70
2018-04-15T09:06:07.722Z,3.63
2018-04-15T09:08:35.285Z,5.63
2018-04-15T09:11:02.820Z,3.10
2018-04-15T09:13:30.346Z,5.13
2018-04-15T09:15:57.910Z,5.17
2018-04-15T09:18:25.459Z,3.50
2018-04-15T09:20:52.990Z,3.30
2018-04-15T09:23:20.538Z,3.00
2018-04-15T09:25:48.090Z,3.57
2018-04-15T09:28:15.606Z,5.07
2018-04-15T09:30:48.822Z,5.93
2018-04-15T09:33:16.337Z,3.67
2018-04-15T09:35:43.892Z,5.80
2018-04-15T09:38:12.222Z,8.47
2018-04-15T09:40:39.739Z,3.13
2018-04-15T09:43:08.034Z,3.47
2018-04-15T09:45:36.440Z,3.23
2018-04-15T09:48:03.959Z,3.07
2018-04-15T09:50:31.499Z,3.73
2018-04-15T09:52:59.018Z,2.73
2018-04-15T09:55:26.555Z,2.83
2018-04-15T09:57:54.107Z,4.83
2018-04-15T10:00:21.632Z,5.00
2018-04-15T10:02:49.975Z,3.77
2018-04-15T10:05:17.514Z,3.57
2018-04-15T10:07:45.031Z,4.47
2018-04-15T10:10:12.586Z,3.20
2018-04-15T10:12:40.871Z,2.83
2018-04-15T10:15:08.386Z,6.83
2018-04-15T10:17:35.918Z,3.00
2018-04-15T10:20:03.471Z,2.53
2018-04-15T10:22:31.028Z,3.97
2018-04-15T10:24:58.567Z,2.63
2018-04-15T10:27:26.086Z,5.07
2018-04-15T10:29:53.624Z,3.40
2018-04-15T10:32:21.223Z,4.20
2018-04-15T10:34:48.733Z,4.03
2018-04-15T10:37:16.255Z,3.50
2018-04-15T10:39:44.578Z,3.33
2018-04-15T10:42:12.098Z,3.27
2018-04-15T10:44:40.390Z,3.40
2018-04-15T10:47:07.934Z,6.00
2018-04-15T10:49:35.486Z,5.30
2018-04-15T10:52:03.050Z,5.23
2018-04-15T10:54:40.614Z,3.80
2018-04-15T10:57:08.183Z,3.97
2018-04-15T10:59:35.707Z,5.67
2018-04-15T11:02:03.226Z,4.50
2018-04-15T11:04:30.778Z,3.53
2018-04-15T11:06:58.306Z,5.00
2018-04-15T11:09:25.833Z,5.20
2018-04-15T11:11:53.415Z,4.33
2018-04-15T11:14:35.259Z,3.80
2018-04-15T11:17:02.802Z,3.67
2018-04-15T11:19:31.098Z,3.97
2018-04-15T11:21:58.627Z,6.53
2018-04-15T11:24:26.185Z,4.03
2018-04-15T11:26:54.482Z,3.87
2018-04-15T11:29:22.026Z,5.00
2018-04-15T11:31:49.537Z,6.10
2018-04-15T11:34:17.056Z,3.87
2018-04-15T11:36:44.629Z,5.50
2018-04-15T11:39:12.169Z,4.33
2018-04-15T11:41:39.727Z,5.27
2018-04-15T11:44:07.251Z,3.20
2018-04-15T11:46:34.790Z,3.43
2018-04-15T11:49:02.303Z,4.80
2018-04-15T11:51:29.891Z,3.63
2018-04-15T11:53:57.577Z,4.73
2018-04-15T11:56:25.108Z,4.70
2018-04-15T11:58:52.642Z,4.67
2018-04-15T12:01:20.170Z,3.80
2018-04-15T12:03:47.844Z,3.93
2018-04-15T12:06:15.394Z,3.77
2018-04-15T12:08:42.922Z,4.97
2018-04-15T12:11:10.463Z,3.80
2018-04-15T12:13:38.015Z,4.17
2018-04-15T12:16:05.534Z,5.23
2018-04-15T12:18:33.822Z,4.17
2018-04-15T12:21:02.143Z,3.50
2018-04-15T12:23:29.711Z,6.50
2018-04-15T12:25:57.304Z,4.20
2018-04-15T12:28:24.916Z,4.60
2018-04-15T12:30:52.506Z,4.90
2018-04-15T12:33:20.047Z,3.80
2018-04-15T12:39:01.003Z,3.43
2018-04-15T12:41:28.590Z,4.13
2018-04-15T12:43:56.149Z,5.83
2018-04-15T12:46:23.659Z,4.77
2018-04-15T12:48:52.000Z,4.03
2018-04-15T12:51:19.534Z,4.60
2018-04-15T12:53:52.315Z,5.23
2018-04-15T12:56:19.842Z,4.60
2018-04-15T12:58:48.252Z,4.30
2018-04-15T13:01:15.782Z,5.03
2018-04-15T13:03:43.318Z,5.80
2018-04-15T13:06:10.929Z,5.10
2018-04-15T13:08:38.510Z,5.03
2018-04-15T13:11:06.046Z,6.23
2018-04-15T13:13:33.600Z,4.20
2018-04-15T13:16:01.135Z,6.63
2018-04-15T13:18:28.662Z,4.70
2018-04-15T13:20:56.194Z,4.90
2018-04-15T13:23:23.718Z,5.20
2018-04-15T13:25:51.370Z,5.40
2018-04-15T13:28:18.886Z,4.40
2018-04-15T13:30:46.402Z,4.97
2018-04-15T13:33:13.968Z,4.03
2018-04-15T13:35:46.711Z,5.10
2018-04-15T13:38:14.269Z,4.50
2018-04-15T13:40:42.549Z,5.80
2018-04-15T13:43:10.073Z,4.00
2018-04-15T13:45:37.605Z,4.10
2018-04-15T13:48:05.133Z,4.93
2018-04-15T13:50:32.671Z,4.90
2018-04-15T13:53:00.218Z,4.80
2018-04-15T13:55:27.733Z,4.73
2018-04-15T13:57:55.270Z,6.40
2018-04-15T14:00:22.835Z,5.10
2018-04-15T14:02:50.434Z,3.93
2018-04-15T14:05:17.953Z,6.67
2018-04-15T14:07:45.519Z,3.60
2018-04-15T14:10:13.062Z,4.27
2018-04-15T14:12:40.599Z,5.50
2018-04-15T14:15:08.159Z,4.10
2018-04-15T14:17:35.737Z,3.93
2018-04-15T14:20:04.018Z,4.03
2018-04-15T14:22:31.570Z,4.17
2018-04-15T14:24:59.849Z,7.50
2018-04-15T14:27:27.390Z,4.33
2018-04-15T14:29:54.903Z,3.87
2018-04-15T14:32:22.426Z,3.73
2018-04-15T14:34:49.994Z,4.63
2018-04-15T14:37:17.521Z,4.93
2018-04-15T14:39:45.818Z,6.57
2018-04-15T14:42:13.387Z,5.80
2018-04-15T14:44:40.903Z,5.93
2018-04-15T14:47:08.438Z,4.73
2018-04-15T14:49:35.996Z,5.23
2018-04-15T14:52:03.628Z,4.80
2018-04-15T14:54:31.098Z,4.60
2018-04-15T14:56:58.638Z,5.03
2018-04-15T14:59:26.150Z,3.60
2018-04-15T15:01:53.684Z,5.07
2018-04-15T15:04:21.262Z,4.00
2018-04-15T15:06:48.862Z,5.00
2018-04-15T15:09:16.343Z,4.33
2018-04-15T15:11:43.906Z,6.10
2018-04-15T15:14:11.442Z,5.87
2018-04-15T15:16:39.007Z,6.40
2018-04-15T15:19:06.534Z,3.90
2018-04-15T15:21:34.057Z,4.30
2018-04-15T15:24:01.614Z,5.87
2018-04-15T15:26:29.130Z,5.90
2018-04-15T15:28:56.654Z,4.40
2018-04-15T15:31:24.220Z,5.70
2018-04-15T15:33:51.747Z,5.00
2018-04-15T15:36:19.278Z,4.60
2018-04-15T15:38:46.844Z,6.00
2018-04-15T15:41:14.366Z,4.87
2018-04-15T15:43:42.735Z,5.37
2018-04-15T15:46:10.282Z,5.10
2018-04-15T15:48:37.801Z,7.07
2018-04-15T15:51:05.365Z,4.47
2018-04-15T15:53:32.922Z,4.40
2018-04-15T15:56:00.451Z,4.13
2018-04-15T15:58:28.070Z,7.67
2018-04-15T16:00:55.629Z,6.27
2018-04-15T16:03:23.195Z,5.43
2018-04-15T16:05:50.767Z,6.00
2018-04-15T16:08:18.359Z,4.47
2018-04-15T16:10:45.882Z,5.63
2018-04-15T16:13:13.439Z,3.97
2018-04-15T16:15:40.962Z,4.73
2018-04-15T16:18:08.527Z,4.37
2018-04-15T16:20:36.085Z,5.40
2018-04-15T16:23:03.617Z,6.13
2018-04-15T16:25:36.295Z,6.60
2018-04-15T16:28:03.853Z,6.37
2018-04-15T16:30:31.350Z,4.97
2018-04-15T16:32:58.898Z,4.57
2018-04-15T16:35:26.435Z,5.27
2018-04-15T16:37:53.960Z,6.27
2018-04-15T16:40:22.318Z,5.80
2018-04-15T16:42:49.827Z,5.13
2018-04-15T16:45:17.350Z,5.60
2018-04-15T16:47:44.928Z,4.00
2018-04-15T16:50:13.023Z,4.87
2018-04-15T16:52:40.538Z,5.13
2018-04-15T16:55:08.831Z,6.43
2018-04-15T16:57:36.392Z,5.07
2018-04-15T17:00:03.995Z,6.13
2018-04-15T17:02:31.495Z,5.57
2018-04-15T17:04:59.823Z,8.57
2018-04-15T17:07:27.346Z,4.43
2018-04-15T17:09:54.868Z,3.50
2018-04-15T17:12:22.413Z,4.20
2018-04-15T17:14:49.954Z,4.37
2018-04-15T17:17:17.486Z,3.10
2018-04-15T17:19:45.024Z,5.63
2018-04-15T17:22:13.354Z,3.80
2018-04-15T17:24:40.941Z,4.97
2018-04-15T17:27:08.549Z,4.87
2018-04-15T17:29:36.858Z,5.43
2018-04-15T17:32:04.387Z,5.10
2018-04-15T17:34:31.931Z,6.43
2018-04-15T17:36:59.470Z,6.83
2018-04-15T17:39:26.999Z,5.10
2018-04-15T17:41:54.563Z,4.47
2018-04-15T17:44:22.102Z,3.73
2018-04-15T17:46:49.619Z,4.07
2018-04-15T17:49:17.151Z,3.00
2018-04-15T17:51:45.454Z,4.33
2018-04-15T17:54:13.010Z,3.97
2018-04-15T17:56:40.538Z,6.10
2018-04-15T17:59:08.922Z,7.07
2018-04-15T18:01:37.219Z,4.77
2018-04-15T18:04:19.375Z,3.87
2018-04-15T18:06:46.898Z,4.33
2018-04-15T18:09:14.483Z,3.93
2018-04-15T18:11:42.254Z,5.00
2018-04-15T18:14:09.771Z,5.20
2018-04-15T18:16:37.295Z,3.33
2018-04-15T18:19:04.849Z,4.63
2018-04-15T18:21:32.611Z,7.57
2018-04-15T18:24:00.096Z,6.10
2018-04-15T18:26:27.667Z,4.63
2018-04-15T18:28:55.195Z,3.87
2018-04-15T18:31:22.734Z,5.57
2018-04-15T18:33:50.306Z,5.07
2018-04-15T18:36:17.815Z,6.00
2018-04-15T18:38:45.337Z,11.13
2018-04-15T18:41:12.882Z,10.20
2018-04-15T18:43:40.391Z,21.47
2018-04-15T18:46:07.937Z,10.47
2018-04-15T18:48:35.465Z,4.80
2018-04-15T18:51:03.033Z,4.13
2018-04-15T18:53:31.332Z,4.97
2018-04-15T18:55:58.873Z,6.23
2018-04-15T18:58:27.155Z,5.03
2018-04-15T19:00:54.676Z,4.00
2018-04-15T19:03:22.223Z,4.07
2018-04-15T19:05:49.751Z,3.20
2018-04-15T19:08:17.272Z,9.23
2018-04-15T19:10:45.610Z,7.03
2018-04-15T19:13:13.166Z,3.50
2018-04-15T19:15:40.684Z,4.73
2018-04-15T19:18:08.219Z,5.90
2018-04-15T19:20:35.790Z,6.33
2018-04-15T19:23:03.308Z,5.80
2018-04-15T19:25:31.071Z,7.37
2018-04-15T19:27:58.601Z,3.87
2018-04-15T19:30:26.114Z,6.23
2018-04-15T19:32:54.419Z,7.47
2018-04-15T19:35:22.055Z,6.67
2018-04-15T19:37:49.602Z,6.43
2018-04-15T19:40:17.090Z,7.77
2018-04-15T19:42:44.680Z,6.27
2018-04-15T19:45:12.241Z,3.67
2018-04-15T19:47:39.758Z,7.60
2018-04-15T19:50:08.043Z,6.07
2018-04-15T19:52:35.582Z,5.77
2018-04-15T19:55:03.243Z,5.87
2018-04-15T19:57:31.571Z,4.40
2018-04-15T19:59:59.107Z,7.20
2018-04-15T20:02:27.443Z,7.07
2018-04-15T20:05:18.996Z,5.73
2018-04-15T20:07:47.306Z,7.20
2018-04-15T20:10:14.827Z,7.87
2018-04-15T20:12:42.357Z,9.53
2018-04-15T20:15:09.970Z,5.87
2018-04-15T20:17:37.499Z,8.37
2018-04-15T20:20:05.766Z,6.10
2018-04-15T20:22:34.114Z,4.07
2018-04-15T20:25:01.648Z,9.37
2018-04-15T20:27:29.174Z,6.97
2018-04-15T20:29:56.731Z,7.77
2018-04-15T20:32:24.291Z,5.87
2018-04-15T20:35:11.343Z,6.47
2018-04-15T20:37:38.898Z,6.70
2018-04-15T20:40:06.431Z,4.20
2018-04-15T20:42:33.995Z,11.57
2018-04-15T20:45:01.603Z,6.17
2018-04-15T20:47:29.160Z,8.80
2018-04-15T20:49:56.654Z,6.07
2018-04-15T20:52:24.237Z,6.17
2018-04-15T20:54:51.966Z,7.10
2018-04-15T20:57:19.495Z,8.23
2018-04-15T20:59:47.075Z,10.83
2018-04-15T21:02:14.592Z,8.10
2018-04-15T21:04:47.407Z,5.87
2018-04-15T21:07:14.922Z,4.20
2018-04-15T21:09:42.450Z,8.87
2018-04-15T21:12:10.003Z,7.03
2018-04-15T21:14:37.763Z,4.93
2018-04-15T21:17:05.282Z,6.73
2018-04-15T21:19:32.847Z,7.53
2018-04-15T21:22:00.381Z,4.50
2018-04-15T21:24:27.910Z,6.13
2018-04-15T21:26:55.507Z,4.70
2018-04-15T21:29:22.999Z,6.67
2018-04-15T21:31:50.551Z,7.60
2018-04-15T21:34:27.874Z,7.30
2018-04-15T21:36:55.418Z,8.20
2018-04-15T21:39:23.693Z,8.13
2018-04-15T21:41:51.990Z,6.53
2018-04-15T21:44:19.535Z,7.97
2018-04-15T21:46:47.111Z,6.77
2018-04-15T21:49:14.654Z,10.23
2018-04-15T21:51:42.212Z,8.63
2018-04-15T21:54:09.764Z,9.53
2018-04-15T21:56:38.046Z,6.30
2018-04-15T21:59:05.617Z,7.20
2018-04-15T22:01:33.138Z,9.73
2018-04-15T22:04:00.674Z,11.40
2018-04-15T22:06:28.226Z,6.33
2018-04-15T22:08:55.791Z,6.30
2018-04-15T22:11:35.071Z,6.07
2018-04-15T22:14:02.602Z,6.50
2018-04-15T22:16:30.123Z,7.63
2018-04-15T22:18:57.661Z,5.03
2018-04-15T22:21:25.180Z,6.13
2018-04-15T22:23:52.707Z,6.60
2018-04-15T22:26:20.262Z,7.30
2018-04-15T22:28:47.805Z,5.63
2018-04-15T22:31:15.335Z,5.37
2018-04-15T22:33:42.907Z,4.53
2018-04-15T22:36:10.432Z,8.33
2018-04-15T22:38:37.947Z,6.03
2018-04-15T22:41:05.507Z,5.07
2018-04-15T22:43:33.035Z,6.33
2018-04-15T22:46:00.681Z,5.50
2018-04-15T22:48:33.804Z,7.47
2018-04-15T22:51:01.339Z,6.73
2018-04-15T22:53:28.903Z,5.10
2018-04-15T22:55:56.462Z,6.63
2018-04-15T22:58:24.815Z,7.80
2018-04-15T23:00:52.392Z,8.07
2018-04-15T23:03:20.699Z,5.10
2018-04-15T23:05:48.243Z,7.70
2018-04-15T23:08:15.758Z,8.27
2018-04-15T23:10:43.279Z,7.57
2018-04-15T23:13:11.578Z,5.27
2018-04-15T23:15:39.130Z,8.60
2018-04-15T23:18:06.669Z,10.50
2018-04-15T23:20:34.579Z,4.77
2018-04-15T23:23:02.121Z,9.40
2018-04-15T23:25:29.662Z,9.30
2018-04-15T23:27:57.199Z,6.83
2018-04-15T23:30:24.722Z,6.90
2018-04-15T23:32:52.332Z,9.17
2018-04-15T23:35:19.854Z,7.07
2018-04-15T23:37:48.147Z,6.00
2018-04-15T23:40:15.682Z,7.77
2018-04-15T23:42:43.251Z,8.87
2018-04-15T23:45:10.775Z,8.03
2018-04-15T23:47:38.313Z,4.37
2018-04-15T23:50:05.890Z,5.53
2018-04-15T23:52:33.415Z,10.50
2018-04-15T23:55:00.934Z,6.90
2018-04-15T23:57:29.260Z,7.43
2018-04-15T23:59:56.778Z,10.97
